Time;durP1;ratioP1;P1;durP2;ratioP2;P2;SDS_P1;SDS_P2;PMS_P1;PMS_P2;Temp;Humidity;BMP_temperature;BMP_pressure;BME280_temperature;BME280_humidity;BME280_pressure;Samples;Min_cycle;Max_cycle;Signal;HPM_P1;HPM_P2
2022/06/24 00:01:33;;;;;;;11.90;8.10;;;13.50;99.90;;;;;;4973120;28;20430;-77
2022/06/24 00:03:59;;;;;;;13.95;8.18;;;13.50;99.90;;;;;;4973428;28;20391;-78
2022/06/24 00:06:40;;;;;;;18.05;9.02;;;13.40;99.90;;;;;;4973111;28;20464;-77
2022/06/24 00:09:06;;;;;;;12.60;6.70;;;13.40;99.90;;;;;;4972875;28;20110;-78
2022/06/24 00:11:34;;;;;;;12.30;7.50;;;13.30;99.90;;;;;;4972973;28;20149;-78
2022/06/24 00:14:04;;;;;;;14.07;7.57;;;13.30;99.90;;;;;;4972921;28;20591;-77
2022/06/24 00:16:31;;;;;;;14.52;8.70;;;13.30;99.90;;;;;;4973159;28;20651;-78
2022/06/24 00:19:12;;;;;;;13.70;8.45;;;13.30;99.90;;;;;;4973028;28;20053;-78
2022/06/24 00:21:38;;;;;;;11.63;8.05;;;13.30;99.90;;;;;;4972698;28;20025;-78
2022/06/24 00:24:04;;;;;;;16.30;9.00;;;13.30;99.90;;;;;;4972090;28;20681;-78
2022/06/24 00:26:42;;;;;;;19.48;10.00;;;13.40;99.90;;;;;;4972619;28;20415;-77
2022/06/24 00:29:08;;;;;;;15.60;9.23;;;13.40;99.90;;;;;;4971017;28;20073;-78
2022/06/24 00:31:34;;;;;;;19.75;10.52;;;13.40;99.90;;;;;;4971194;28;20027;-78
2022/06/24 00:34:00;;;;;;;17.83;11.50;;;13.50;99.90;;;;;;4972711;28;20035;-77
2022/06/24 00:36:26;;;;;;;18.17;11.50;;;13.70;99.90;;;;;;4954876;28;20542;-78
2022/06/24 00:38:52;;;;;;;20.10;11.02;;;13.80;99.90;;;;;;4972269;28;20547;-78
2022/06/24 00:41:25;;;;;;;20.35;11.35;;;13.90;99.90;;;;;;4972307;28;20062;-77
2022/06/24 00:43:55;;;;;;;18.17;11.15;;;13.90;99.90;;;;;;4972172;28;20435;-77
2022/06/24 00:46:24;;;;;;;19.48;11.23;;;14.10;99.90;;;;;;4972476;28;20383;-78
2022/06/24 00:48:58;;;;;;;21.88;11.38;;;14.20;99.90;;;;;;4972390;28;20034;-78
2022/06/24 00:51:38;;;;;;;21.50;11.88;;;14.20;99.90;;;;;;4990588;23;20011;-80
2022/06/24 00:54:09;;;;;;;15.18;11.38;;;14.10;99.90;;;;;;4970607;28;20038;-80
2022/06/24 00:56:35;;;;;;;24.93;12.17;;;14.10;99.90;;;;;;4972131;28;20030;-81
2022/06/24 00:59:04;;;;;;;21.65;11.43;;;14.10;99.90;;;;;;4972259;28;20030;-80
2022/06/24 01:01:33;;;;;;;15.40;9.52;;;14.20;99.90;;;;;;4972335;28;20077;-79
2022/06/24 01:04:01;;;;;;;16.38;10.30;;;14.20;99.90;;;;;;4972018;28;20035;-78
2022/06/24 01:06:28;;;;;;;18.70;10.88;;;14.30;99.90;;;;;;4972047;28;20027;-78
2022/06/24 01:08:54;;;;;;;21.45;10.73;;;14.30;99.90;;;;;;4972243;28;20069;-78
2022/06/24 01:11:25;;;;;;;14.15;8.88;;;14.30;99.90;;;;;;4971972;28;20041;-78
2022/06/24 01:13:51;;;;;;;16.00;9.20;;;14.30;99.90;;;;;;4971845;28;20077;-78
2022/06/24 01:16:21;;;;;;;20.50;10.43;;;14.20;99.90;;;;;;4971403;28;20503;-78
2022/06/24 01:18:50;;;;;;;18.40;10.05;;;14.20;99.90;;;;;;4971957;28;20097;-78
2022/06/24 01:21:36;;;;;;;17.98;10.48;;;14.20;99.90;;;;;;4972078;28;20019;-78
2022/06/24 01:24:04;;;;;;;23.42;11.52;;;14.30;99.90;;;;;;4970339;28;20030;-78
2022/06/24 01:26:29;;;;;;;19.80;11.43;;;14.30;99.90;;;;;;4972022;28;20034;-78
2022/06/24 01:28:55;;;;;;;21.98;12.80;;;14.40;99.90;;;;;;4971612;28;20031;-78
2022/06/24 01:31:21;;;;;;;22.42;11.80;;;14.50;99.90;;;;;;4971938;28;20034;-78
2022/06/24 01:33:47;;;;;;;18.17;11.75;;;14.50;99.90;;;;;;4971348;28;20054;-78
2022/06/24 01:36:12;;;;;;;19.02;11.77;;;14.50;99.90;;;;;;4971333;28;20030;-78
2022/06/24 01:38:38;;;;;;;20.65;11.35;;;14.50;99.90;;;;;;4971211;28;20357;-78
2022/06/24 01:41:04;;;;;;;18.98;10.88;;;14.40;99.90;;;;;;4971428;28;20110;-78
2022/06/24 01:43:30;;;;;;;19.17;11.70;;;14.40;99.90;;;;;;4971575;28;20538;-78
2022/06/24 01:45:56;;;;;;;22.42;12.35;;;14.50;99.90;;;;;;4971605;28;20027;-78
2022/06/24 01:48:22;;;;;;;19.80;11.45;;;14.40;99.90;;;;;;4954375;28;20042;-78
2022/06/24 01:50:48;;;;;;;17.23;10.93;;;14.40;99.90;;;;;;4975690;28;20492;-78
2022/06/24 01:53:13;;;;;;;18.52;10.65;;;14.40;99.90;;;;;;4975114;28;20399;-78
2022/06/24 01:55:39;;;;;;;14.55;9.27;;;14.30;99.90;;;;;;4982328;28;20380;-78
2022/06/24 01:58:05;;;;;;;13.95;9.43;;;14.20;99.90;;;;;;4975247;28;20026;-78
2022/06/24 02:00:31;;;;;;;17.90;9.27;;;14.20;99.90;;;;;;4975386;28;20063;-79
2022/06/24 02:02:56;;;;;;;17.60;9.18;;;14.10;99.90;;;;;;4975617;28;20034;-78
2022/06/24 02:05:26;;;;;;;15.38;9.02;;;14.10;99.90;;;;;;4975374;28;20075;-78
2022/06/24 02:07:52;;;;;;;15.30;10.07;;;14.00;99.90;;;;;;4957945;28;20121;-79
2022/06/24 02:15:46;;;;;;;13.98;8.05;;;13.90;99.90;;;;;;4975295;28;20045;-78
2022/06/24 02:18:12;;;;;;;12.77;7.70;;;13.80;99.90;;;;;;4975075;28;20018;-78
2022/06/24 02:20:38;;;;;;;11.85;7.57;;;13.80;99.90;;;;;;4974855;28;20098;-78
2022/06/24 02:23:03;;;;;;;13.25;8.32;;;13.70;99.90;;;;;;5004876;23;20133;-81
2022/06/24 02:25:29;;;;;;;12.38;8.18;;;13.60;99.90;;;;;;4994562;28;20057;-80
2022/06/24 02:27:55;;;;;;;13.88;8.45;;;13.60;99.90;;;;;;4976804;28;20064;-81
2022/06/24 02:30:21;;;;;;;13.23;8.48;;;13.60;99.90;;;;;;4993451;28;20172;-81
2022/06/24 02:32:46;;;;;;;11.88;6.85;;;13.50;99.90;;;;;;4994151;28;20041;-81
2022/06/24 02:35:12;;;;;;;8.95;7.00;;;13.50;99.90;;;;;;4976551;28;20177;-81
2022/06/24 02:37:38;;;;;;;11.35;7.38;;;13.40;99.90;;;;;;4993502;28;20031;-81
2022/06/24 02:40:45;;;;;;;12.57;7.70;;;13.40;99.90;;;;;;4993650;28;20053;-81
2022/06/24 02:42:55;;;;;;;12.07;8.30;;;13.40;99.90;;;;;;4993841;28;20030;-80
2022/06/24 02:45:21;;;;;;;17.88;8.45;;;13.40;99.90;;;;;;4975982;28;20176;-80
2022/06/24 02:47:47;;;;;;;13.38;9.40;;;13.50;99.90;;;;;;4975925;28;20114;-81
2022/06/24 02:50:12;;;;;;;12.95;8.70;;;13.50;99.90;;;;;;4993363;28;20467;-81
2022/06/24 02:52:38;;;;;;;14.13;9.23;;;13.60;99.90;;;;;;4993637;28;20033;-81
2022/06/24 02:55:04;;;;;;;17.67;8.88;;;13.60;99.90;;;;;;4993795;28;20022;-81
2022/06/24 02:57:30;;;;;;;17.05;10.05;;;13.60;99.90;;;;;;4993716;28;20406;-81
2022/06/24 02:59:55;;;;;;;16.80;10.35;;;13.60;99.90;;;;;;4992352;28;20037;-81
2022/06/24 03:02:21;;;;;;;17.85;10.00;;;13.60;99.90;;;;;;4993414;28;20019;-81
2022/06/24 03:04:47;;;;;;;17.00;10.23;;;13.60;99.90;;;;;;4993330;28;20057;-82
2022/06/24 03:07:12;;;;;;;19.05;9.57;;;13.70;99.90;;;;;;4993195;28;20109;-81
2022/06/24 03:09:38;;;;;;;15.68;8.93;;;13.60;99.90;;;;;;4993621;28;20026;-81
2022/06/24 03:12:04;;;;;;;19.30;9.88;;;13.60;99.90;;;;;;4993224;28;20593;-81
2022/06/24 03:14:30;;;;;;;13.73;8.40;;;13.60;99.90;;;;;;4993023;28;20026;-81
2022/06/24 03:16:56;;;;;;;17.75;9.50;;;13.50;99.90;;;;;;4992892;28;20109;-81
2022/06/24 03:19:22;;;;;;;13.43;7.45;;;13.50;99.90;;;;;;4975661;28;20026;-81
2022/06/24 03:21:47;;;;;;;9.65;7.30;;;13.40;99.90;;;;;;4992186;23;20052;-86
2022/06/24 03:24:13;;;;;;;14.57;7.70;;;13.40;99.90;;;;;;4976502;28;20206;-86
2022/06/24 03:26:39;;;;;;;11.52;7.70;;;13.40;99.90;;;;;;4956547;28;20029;-86
2022/06/24 03:29:05;;;;;;;10.82;7.35;;;13.30;99.90;;;;;;4972889;28;20027;-86
2022/06/24 03:31:30;;;;;;;12.73;7.38;;;13.30;99.90;;;;;;4964779;28;20427;-86
2022/06/24 03:33:58;;;;;;;13.18;6.53;;;13.30;99.90;;;;;;4972780;28;20476;-86
2022/06/24 03:36:25;;;;;;;16.60;7.32;;;13.30;99.90;;;;;;4963466;28;20468;-86
2022/06/24 03:38:51;;;;;;;8.95;6.03;;;13.20;99.90;;;;;;4972400;28;20042;-86
2022/06/24 03:41:17;;;;;;;12.63;5.93;;;13.10;99.90;;;;;;4972871;28;20022;-86
2022/06/24 03:43:42;;;;;;;10.63;5.55;;;13.10;99.90;;;;;;4971987;28;20458;-87
2022/06/24 03:46:08;;;;;;;8.65;5.72;;;13.10;99.90;;;;;;4972001;28;20031;-86
2022/06/24 03:48:34;;;;;;;8.27;6.15;;;13.10;99.90;;;;;;4965494;28;20015;-87
2022/06/24 03:51:00;;;;;;;12.10;6.60;;;13.20;99.90;;;;;;4972363;28;20379;-87
2022/06/24 03:53:26;;;;;;;13.85;5.80;;;13.10;99.90;;;;;;4975962;28;20093;-87
2022/06/24 03:55:52;;;;;;;8.63;4.90;;;13.10;99.90;;;;;;4967404;28;20054;-85
2022/06/24 03:58:18;;;;;;;10.10;6.88;;;13.10;99.90;;;;;;4972217;28;20031;-87
2022/06/24 04:00:45;;;;;;;13.93;6.65;;;13.00;99.90;;;;;;4971916;28;20049;-87
2022/06/24 04:03:11;;;;;;;13.73;6.55;;;13.00;99.90;;;;;;4972092;28;20093;-87
2022/06/24 04:05:37;;;;;;;9.63;6.85;;;12.90;99.90;;;;;;4972449;28;20019;-87
2022/06/24 04:08:03;;;;;;;12.98;7.68;;;12.90;99.90;;;;;;4971813;28;20034;-87
2022/06/24 04:10:30;;;;;;;9.75;6.65;;;12.90;99.90;;;;;;4972122;28;20081;-87
2022/06/24 04:12:56;;;;;;;15.65;7.40;;;13.10;99.90;;;;;;4971549;28;20022;-87
2022/06/24 04:15:21;;;;;;;14.95;8.02;;;13.00;99.90;;;;;;4972488;28;20027;-86
2022/06/24 04:17:49;;;;;;;14.45;7.70;;;13.10;99.90;;;;;;4971725;28;20033;-87
2022/06/24 04:20:16;;;;;;;10.07;6.25;;;13.00;99.90;;;;;;4971978;28;20034;-87
2022/06/24 04:22:42;;;;;;;10.68;6.10;;;13.00;99.90;;;;;;5057209;23;20045;-82
2022/06/24 04:25:09;;;;;;;13.18;7.07;;;13.00;99.90;;;;;;5031720;28;20607;-81
2022/06/24 04:27:35;;;;;;;8.18;5.68;;;13.10;99.90;;;;;;5034851;28;20030;-81
2022/06/24 04:30:02;;;;;;;12.38;6.63;;;13.20;99.90;;;;;;5030329;28;20036;-81
2022/06/24 04:32:28;;;;;;;13.95;7.28;;;13.20;99.90;;;;;;5030560;28;20036;-81
2022/06/24 04:34:54;;;;;;;10.25;7.30;;;13.20;99.90;;;;;;5030679;28;20021;-81
2022/06/24 04:37:20;;;;;;;14.85;8.10;;;13.20;99.90;;;;;;5030237;28;20025;-81
2022/06/24 04:39:45;;;;;;;13.52;6.47;;;13.30;99.90;;;;;;5029510;28;20034;-81
2022/06/24 04:42:11;;;;;;;9.88;6.47;;;13.30;99.90;;;;;;5030082;28;20371;-80
2022/06/24 04:44:37;;;;;;;12.35;6.20;;;13.30;99.90;;;;;;5029931;28;20108;-80
2022/06/24 04:47:03;;;;;;;11.60;6.68;;;13.30;99.90;;;;;;5029859;28;20030;-81
2022/06/24 04:49:29;;;;;;;11.55;6.95;;;13.30;99.90;;;;;;5030512;28;20021;-81
2022/06/24 04:51:54;;;;;;;14.20;6.63;;;13.30;99.90;;;;;;5030099;28;20025;-80
2022/06/24 04:54:21;;;;;;;11.65;5.93;;;13.40;99.90;;;;;;5011555;28;20024;-81
2022/06/24 04:56:47;;;;;;;10.07;5.60;;;13.40;99.90;;;;;;5029809;28;20553;-81
2022/06/24 04:59:13;;;;;;;11.18;6.22;;;13.40;99.90;;;;;;5011999;28;20032;-81
2022/06/24 05:01:38;;;;;;;8.68;6.43;;;13.50;99.90;;;;;;5029920;28;20040;-81
2022/06/24 05:04:05;;;;;;;12.65;6.32;;;13.50;99.90;;;;;;5011987;28;20053;-81
2022/06/24 05:06:31;;;;;;;12.20;6.10;;;13.70;99.90;;;;;;5012026;28;20112;-81
2022/06/24 05:08:56;;;;;;;11.40;6.03;;;13.80;99.90;;;;;;5029624;28;20474;-80
2022/06/24 05:11:22;;;;;;;11.52;5.57;;;14.00;99.90;;;;;;5029677;28;20437;-81
2022/06/24 05:13:48;;;;;;;11.13;5.78;;;14.10;99.90;;;;;;5029639;28;20036;-81
2022/06/24 05:16:14;;;;;;;12.43;5.95;;;14.20;99.90;;;;;;5029531;28;20005;-81
2022/06/24 05:18:40;;;;;;;8.75;5.15;;;14.40;99.90;;;;;;5029566;28;20025;-81
2022/06/24 05:21:06;;;;;;;9.95;4.65;;;14.60;99.90;;;;;;5030061;28;20535;-81
2022/06/24 05:23:31;;;;;;;7.43;5.05;;;14.80;99.90;;;;;;5029146;28;20101;-81
2022/06/24 05:25:57;;;;;;;7.45;4.07;;;15.10;99.90;;;;;;5011344;28;20057;-81
2022/06/24 05:28:23;;;;;;;8.30;4.07;;;15.40;99.90;;;;;;5028904;28;20013;-80
2022/06/24 05:31:07;;;;;;;8.27;4.00;;;15.60;99.90;;;;;;5029345;28;20026;-82
2022/06/24 05:33:33;;;;;;;7.10;3.75;;;15.90;99.90;;;;;;5029519;28;20092;-81
2022/06/24 05:35:59;;;;;;;4.68;3.08;;;16.10;99.90;;;;;;5029353;28;20120;-81
2022/06/24 05:38:25;;;;;;;5.65;3.33;;;16.30;99.90;;;;;;5029885;28;20466;-82
2022/06/24 05:40:52;;;;;;;6.47;3.65;;;16.40;99.90;;;;;;5028822;28;20478;-81
2022/06/24 05:43:19;;;;;;;6.25;3.22;;;16.60;99.90;;;;;;5011737;28;20385;-82
2022/06/24 05:45:46;;;;;;;6.40;3.20;;;16.60;99.90;;;;;;5029461;28;20026;-81
2022/06/24 05:48:13;;;;;;;5.97;3.35;;;16.60;99.90;;;;;;5029337;28;20022;-82
2022/06/24 05:50:39;;;;;;;7.65;3.28;;;16.60;99.90;;;;;;5029724;28;20445;-81
2022/06/24 05:55:58;;;;;;;5.53;3.22;;;16.40;99.90;;;;;;4988951;28;20077;-79
2022/06/24 05:58:28;;;;;;;8.45;3.72;;;16.40;99.90;;;;;;4983843;28;20022;-79
2022/06/24 06:00:54;;;;;;;6.40;3.72;;;16.30;99.90;;;;;;4989354;28;20495;-79
2022/06/24 06:03:21;;;;;;;5.28;2.97;;;16.20;99.90;;;;;;4989784;28;20058;-79
2022/06/24 06:05:48;;;;;;;6.30;3.70;;;16.10;99.90;;;;;;4989847;28;20022;-79
2022/06/24 06:08:15;;;;;;;6.13;3.65;;;16.00;99.90;;;;;;4988106;28;20018;-79
2022/06/24 06:10:43;;;;;;;6.80;3.80;;;16.00;99.90;;;;;;4989794;28;20023;-79
2022/06/24 06:13:12;;;;;;;8.07;4.10;;;16.00;99.90;;;;;;4989906;28;20030;-79
2022/06/24 06:15:38;;;;;;;6.40;3.67;;;16.00;99.90;;;;;;4983489;28;20065;-79
2022/06/24 06:18:05;;;;;;;5.40;3.83;;;16.00;99.90;;;;;;4989365;28;20026;-79
2022/06/24 06:20:31;;;;;;;8.68;4.15;;;16.10;99.90;;;;;;4989277;28;20030;-79
2022/06/24 06:22:57;;;;;;;6.40;4.20;;;16.10;99.90;;;;;;4990721;28;20403;-79
2022/06/24 06:25:22;;;;;;;7.63;4.15;;;16.30;99.90;;;;;;4989767;28;20050;-80
2022/06/24 06:27:49;;;;;;;6.57;4.05;;;16.60;99.90;;;;;;4989639;28;20448;-79
2022/06/24 06:30:15;;;;;;;6.55;3.88;;;16.90;99.90;;;;;;4990100;28;20019;-79
2022/06/24 06:32:41;;;;;;;5.22;3.38;;;17.20;99.90;;;;;;4989623;28;20061;-79
2022/06/24 06:35:07;;;;;;;7.80;3.70;;;17.40;99.90;;;;;;4989221;28;20035;-79
2022/06/24 06:37:33;;;;;;;5.32;3.08;;;17.50;99.90;;;;;;4993239;28;20018;-80
2022/06/24 06:39:59;;;;;;;4.38;3.10;;;17.60;99.90;;;;;;4992646;28;20435;-79
2022/06/24 06:42:25;;;;;;;5.55;3.00;;;17.40;99.90;;;;;;4993160;28;20061;-80
2022/06/24 06:44:51;;;;;;;4.20;2.88;;;17.40;99.90;;;;;;4993559;28;20053;-79
2022/06/24 06:47:16;;;;;;;8.02;3.65;;;17.30;99.90;;;;;;4992714;28;20044;-78
2022/06/24 06:49:42;;;;;;;4.80;3.63;;;17.20;99.90;;;;;;4991827;28;20089;-79
2022/06/24 06:52:08;;;;;;;4.70;3.00;;;17.20;99.90;;;;;;5009109;23;20046;-81
2022/06/24 06:54:34;;;;;;;3.70;2.90;;;17.30;99.90;;;;;;4975336;28;20502;-81
2022/06/24 06:57:00;;;;;;;6.13;3.03;;;17.40;99.90;;;;;;4985383;28;20592;-82
2022/06/24 06:59:26;;;;;;;4.40;3.25;;;17.40;99.90;;;;;;4985252;28;20483;-81
2022/06/24 07:01:51;;;;;;;2.92;2.47;;;17.50;99.90;;;;;;4981020;28;20018;-82
2022/06/24 07:04:17;;;;;;;7.30;3.20;;;17.70;99.90;;;;;;4981709;28;20110;-81
2022/06/24 07:06:43;;;;;;;5.45;2.92;;;17.80;99.90;;;;;;4985078;28;20030;-81
2022/06/24 07:09:10;;;;;;;9.18;2.90;;;18.20;99.90;;;;;;4980060;28;20046;-82
2022/06/24 07:11:36;;;;;;;6.97;2.50;;;18.70;99.90;;;;;;4981515;28;20019;-80
2022/06/24 07:14:02;;;;;;;3.67;2.30;;;19.10;99.90;;;;;;4985405;28;20045;-83
2022/06/24 07:16:27;;;;;;;2.80;2.22;;;19.30;99.90;;;;;;4980757;28;20023;-81
2022/06/24 07:18:53;;;;;;;6.55;2.22;;;19.50;99.90;;;;;;4981985;28;20035;-81
2022/06/24 07:21:19;;;;;;;4.15;2.15;;;19.60;99.90;;;;;;4985344;28;20026;-82
2022/06/24 07:23:44;;;;;;;2.80;2.22;;;19.60;99.90;;;;;;4984849;28;20462;-81
2022/06/24 07:26:10;;;;;;;2.60;2.25;;;19.50;99.90;;;;;;4982394;28;20030;-80
2022/06/24 07:28:37;;;;;;;4.75;1.98;;;19.40;99.90;;;;;;4974687;28;20367;-81
2022/06/24 07:31:33;;;;;;;4.50;2.30;;;19.20;99.90;;;;;;4978091;28;20025;-81
2022/06/24 07:33:59;;;;;;;5.32;2.33;;;19.00;99.90;;;;;;4966978;28;20049;-80
2022/06/24 07:36:24;;;;;;;4.45;2.35;;;19.00;99.90;;;;;;4980434;28;20383;-80
2022/06/24 07:38:50;;;;;;;6.15;2.53;;;18.90;99.90;;;;;;4981330;28;20027;-80
2022/06/24 07:41:16;;;;;;;3.05;2.10;;;19.00;99.90;;;;;;4984867;28;20049;-81
2022/06/24 07:43:42;;;;;;;2.80;1.95;;;19.10;99.90;;;;;;4979915;28;20022;-80
2022/06/24 07:46:08;;;;;;;3.90;2.30;;;19.20;99.90;;;;;;4980609;28;20034;-81
2022/06/24 07:48:35;;;;;;;5.53;2.70;;;19.20;99.90;;;;;;4984282;28;20022;-82
2022/06/24 07:51:09;;;;;;;2.80;2.00;;;19.10;99.90;;;;;;4977759;28;20018;-82
2022/06/24 07:53:34;;;;;;;2.92;2.22;;;19.20;99.90;;;;;;4985205;28;20519;-81
2022/06/24 07:58:44;;;;;;;6.13;2.30;;;18.90;99.90;;;;;;4982604;28;20037;-82
2022/06/24 08:01:10;;;;;;;2.00;1.80;;;18.60;99.90;;;;;;4967805;28;20026;-81
2022/06/24 08:03:35;;;;;;;3.97;2.60;;;18.60;99.90;;;;;;4980565;28;20041;-81
2022/06/24 08:06:01;;;;;;;2.97;1.85;;;18.60;99.90;;;;;;4980456;28;20026;-82
2022/06/24 08:08:27;;;;;;;4.05;1.88;;;18.80;99.90;;;;;;4984032;28;20080;-81
2022/06/24 08:10:52;;;;;;;2.63;2.00;;;19.00;99.90;;;;;;4979827;28;20202;-81
2022/06/24 08:13:18;;;;;;;5.47;1.85;;;19.20;99.90;;;;;;4980438;28;20117;-82
2022/06/24 08:15:44;;;;;;;3.72;1.90;;;19.40;99.90;;;;;;4984147;28;20029;-81
2022/06/24 08:18:10;;;;;;;3.50;2.15;;;19.80;99.90;;;;;;4979861;28;20492;-80
2022/06/24 08:20:35;;;;;;;4.75;1.67;;;20.40;99.90;;;;;;4980146;28;20030;-82
2022/06/24 08:23:02;;;;;;;2.42;1.75;;;20.90;99.90;;;;;;5026866;23;20128;-80
2022/06/24 08:25:28;;;;;;;4.13;1.67;;;21.40;99.90;;;;;;5029120;28;20501;-81
2022/06/24 08:27:54;;;;;;;3.55;1.52;;;21.50;99.90;;;;;;5029601;28;20040;-81
2022/06/24 08:30:20;;;;;;;2.47;1.30;;;21.80;99.90;;;;;;5029987;28;20080;-81
2022/06/24 08:32:46;;;;;;;3.15;1.27;;;22.10;99.90;;;;;;5028557;28;20033;-81
2022/06/24 08:35:11;;;;;;;2.90;1.40;;;22.20;96.30;;;;;;5029598;28;20095;-82
2022/06/24 08:37:37;;;;;;;5.20;1.70;;;22.00;96.40;;;;;;5030052;28;20052;-82
2022/06/24 08:40:03;;;;;;;3.75;1.52;;;21.50;98.20;;;;;;5028928;28;20037;-83
2022/06/24 08:42:29;;;;;;;3.25;2.03;;;21.40;99.30;;;;;;5029505;28;20087;-81
2022/06/24 08:44:59;;;;;;;1.90;1.70;;;21.30;99.90;;;;;;5029733;28;20017;-81
2022/06/24 08:47:25;;;;;;;3.25;1.60;;;21.50;99.90;;;;;;5023198;28;20025;-81
2022/06/24 08:49:51;;;;;;;3.30;1.63;;;21.30;99.90;;;;;;5029514;28;20025;-81
2022/06/24 08:52:20;;;;;;;5.32;1.73;;;21.00;99.90;;;;;;5029343;28;20056;-83
2022/06/24 08:54:46;;;;;;;2.42;1.60;;;21.10;99.90;;;;;;5029167;28;20035;-82
2022/06/24 08:57:13;;;;;;;4.70;1.50;;;21.30;99.90;;;;;;5028647;28;20706;-82
2022/06/24 08:59:39;;;;;;;3.00;1.58;;;21.90;99.90;;;;;;5029060;28;20405;-81
2022/06/24 09:02:05;;;;;;;4.50;2.25;;;22.70;96.60;;;;;;5029612;28;20363;-81
2022/06/24 09:04:33;;;;;;;3.00;1.38;;;23.70;92.20;;;;;;5029110;28;20021;-82
2022/06/24 09:07:01;;;;;;;2.92;1.65;;;24.50;85.70;;;;;;5028905;28;20022;-82
2022/06/24 09:09:28;;;;;;;2.55;1.50;;;25.00;78.70;;;;;;5029465;28;20018;-82
2022/06/24 09:11:57;;;;;;;3.53;1.67;;;24.70;75.10;;;;;;5012230;28;20022;-83
2022/06/24 09:14:41;;;;;;;3.08;1.33;;;23.90;79.90;;;;;;5029202;28;20018;-81
2022/06/24 09:17:07;;;;;;;2.00;1.30;;;23.50;85.60;;;;;;5011279;28;20075;-82
2022/06/24 09:19:33;;;;;;;3.03;1.70;;;23.20;87.90;;;;;;5028877;28;20029;-83
2022/06/24 09:21:59;;;;;;;2.42;1.67;;;23.00;90.70;;;;;;5039747;23;20949;-80
2022/06/24 09:24:47;;;;;;;2.05;1.50;;;22.60;91.80;;;;;;4974562;28;20135;-78
2022/06/24 09:27:13;;;;;;;3.10;1.48;;;22.00;95.20;;;;;;4971465;28;20011;-79
2022/06/24 09:29:48;;;;;;;4.88;2.05;;;21.60;98.40;;;;;;4971342;28;20027;-79
2022/06/24 09:32:14;;;;;;;4.70;2.03;;;21.70;99.90;;;;;;4971283;28;20030;-79
2022/06/24 09:35:00;;;;;;;1.75;1.50;;;22.00;99.90;;;;;;4964684;28;20023;-79
2022/06/24 09:37:36;;;;;;;2.45;1.70;;;22.80;96.90;;;;;;4971430;28;20019;-79
2022/06/24 09:40:23;;;;;;;2.60;1.40;;;24.00;89.80;;;;;;4971185;28;20042;-79
2022/06/24 09:43:01;;;;;;;4.30;1.50;;;25.10;90.10;;;;;;4978405;28;20014;-79
2022/06/24 09:45:48;;;;;;;5.18;1.70;;;25.70;74.10;;;;;;4971521;28;20026;-79
2022/06/24 09:48:28;;;;;;;4.68;2.17;;;25.70;74.80;;;;;;4971425;28;20105;-79
2022/06/24 09:51:02;;;;;;;4.72;1.70;;;26.00;76.60;;;;;;4971425;28;20479;-79
2022/06/24 09:53:32;;;;;;;3.55;1.60;;;26.40;69.70;;;;;;4971743;28;20161;-79
2022/06/24 09:55:59;;;;;;;4.20;2.03;;;26.80;74.00;;;;;;4971319;28;20034;-78
2022/06/24 09:58:25;;;;;;;1.98;1.52;;;26.30;67.50;;;;;;4971192;28;20146;-79
2022/06/24 10:00:51;;;;;;;2.70;1.83;;;26.10;69.70;;;;;;4970871;28;20546;-79
2022/06/24 10:03:18;;;;;;;4.00;2.25;;;25.40;71.40;;;;;;4969764;28;20534;-79
2022/06/24 10:05:49;;;;;;;4.20;2.50;;;24.70;74.20;;;;;;4965727;28;20031;-80
2022/06/24 10:08:20;;;;;;;4.18;2.33;;;24.30;79.00;;;;;;4978082;28;20022;-79
2022/06/24 10:10:49;;;;;;;5.50;3.00;;;23.50;85.20;;;;;;4973257;28;20369;-79
2022/06/24 10:13:25;;;;;;;4.05;3.00;;;23.50;88.30;;;;;;4975165;28;20023;-79
2022/06/24 10:16:02;;;;;;;4.80;2.47;;;23.50;89.60;;;;;;4974715;28;20023;-79
2022/06/24 10:18:32;;;;;;;5.65;2.58;;;23.30;93.10;;;;;;4957513;28;20019;-78
2022/06/24 10:21:04;;;;;;;4.43;2.80;;;23.10;93.30;;;;;;4981451;28;20038;-79
2022/06/24 10:23:51;;;;;;;7.53;2.78;;;22.80;96.30;;;;;;5012048;23;20047;-80
2022/06/24 10:26:32;;;;;;;5.60;2.83;;;22.60;99.60;;;;;;4974905;28;20388;-81
2022/06/24 10:29:03;;;;;;;5.10;3.30;;;22.40;99.90;;;;;;4976098;28;20015;-82
2022/06/24 10:31:44;;;;;;;;;;;22.20;99.90;;;;;;4975443;28;20041;-81
2022/06/24 10:34:11;;;;;;;5.38;2.85;;;22.40;99.90;;;;;;4975138;28;19993;-81
2022/06/24 10:36:37;;;;;;;5.13;2.22;;;22.50;99.90;;;;;;4974755;28;20023;-80
2022/06/24 10:39:16;;;;;;;6.18;3.10;;;22.80;99.90;;;;;;4974409;28;20066;-82
2022/06/24 10:41:42;;;;;;;4.68;2.53;;;23.50;98.30;;;;;;4974807;28;20030;-81
2022/06/24 10:44:20;;;;;;;4.32;2.78;;;24.00;95.60;;;;;;4974894;28;20073;-81
2022/06/24 10:46:45;;;;;;;4.18;2.28;;;24.20;94.20;;;;;;4974592;28;20035;-81
2022/06/24 10:49:11;;;;;;;5.63;2.75;;;24.00;92.70;;;;;;4957249;28;20023;-79
2022/06/24 10:51:37;;;;;;;3.30;2.28;;;24.10;92.40;;;;;;4974297;28;20025;-81
2022/06/24 10:54:02;;;;;;;7.25;3.30;;;23.70;96.80;;;;;;4974509;28;20030;-81
2022/06/24 10:56:39;;;;;;;5.57;3.53;;;23.50;96.10;;;;;;4974217;28;20070;-81
2022/06/24 10:59:05;;;;;;;5.10;3.33;;;23.60;97.30;;;;;;4957013;28;20371;-81
2022/06/24 11:01:32;;;;;;;8.65;3.25;;;23.90;95.30;;;;;;4974706;28;20488;-81
2022/06/24 11:04:01;;;;;;;4.03;3.17;;;24.40;94.00;;;;;;4974349;28;20034;-81
2022/06/24 11:06:27;;;;;;;5.10;2.97;;;25.60;90.00;;;;;;4974202;28;20023;-81
2022/06/24 11:08:53;;;;;;;4.63;2.45;;;28.00;79.50;;;;;;4973607;28;20074;-79
2022/06/24 11:11:31;;;;;;;3.97;2.53;;;30.40;68.70;;;;;;4973820;28;20027;-79
2022/06/24 11:13:57;;;;;;;5.30;2.15;;;31.90;60.60;;;;;;4973827;28;20117;-81
2022/06/24 11:16:27;;;;;;;5.45;2.92;;;32.80;55.10;;;;;;4962945;28;20115;-83
2022/06/24 11:18:53;;;;;;;3.17;1.60;;;32.40;51.90;;;;;;4972764;28;20029;-81
2022/06/24 11:21:19;;;;;;;3.45;1.75;;;32.60;53.20;;;;;;4972186;28;20454;-80
2022/06/24 11:23:47;;;;;;;2.85;1.23;;;33.10;51.60;;;;;;4972928;28;20041;-81
2022/06/24 11:26:15;;;;;;;2.10;1.50;;;33.90;50.80;;;;;;4973991;28;20046;-82
2022/06/24 11:28:42;;;;;;;2.70;1.50;;;34.50;47.50;;;;;;4974316;28;20080;-81
2022/06/24 11:31:19;;;;;;;3.78;1.52;;;34.10;47.60;;;;;;4973699;28;20027;-82
2022/06/24 11:33:46;;;;;;;3.72;1.60;;;32.80;48.50;;;;;;4973880;28;20053;-81
2022/06/24 11:36:14;;;;;;;4.53;1.70;;;31.80;50.70;;;;;;4973461;28;20026;-81
2022/06/24 11:38:56;;;;;;;4.47;1.80;;;31.70;51.50;;;;;;4973080;28;20488;-81
2022/06/24 11:41:29;;;;;;;3.22;1.63;;;32.10;51.70;;;;;;4973413;28;20027;-81
2022/06/24 11:43:55;;;;;;;3.55;1.67;;;32.90;51.60;;;;;;4966457;28;20026;-80
2022/06/24 11:46:21;;;;;;;4.63;2.53;;;32.30;49.80;;;;;;4973472;28;20077;-80
2022/06/24 11:48:47;;;;;;;2.42;1.90;;;32.10;51.00;;;;;;4973614;28;20383;-81
2022/06/24 11:51:20;;;;;;;3.38;2.30;;;32.10;50.10;;;;;;4973448;28;20015;-80
2022/06/24 11:54:03;;;;;;;3.60;2.28;;;31.20;52.10;;;;;;4973081;28;20086;-80
2022/06/24 11:56:32;;;;;;;5.00;2.83;;;30.10;53.90;;;;;;4972045;28;20034;-79
2022/06/24 11:59:03;;;;;;;2.85;2.22;;;29.70;56.60;;;;;;4975530;28;20462;-81
2022/06/24 12:01:30;;;;;;;3.40;2.58;;;30.10;55.80;;;;;;4971688;28;20035;-80
2022/06/24 12:03:58;;;;;;;3.85;2.58;;;29.80;56.20;;;;;;4973169;28;20027;-81
2022/06/24 12:06:25;;;;;;;3.67;2.20;;;29.70;56.50;;;;;;4979505;28;20023;-81
2022/06/24 12:08:51;;;;;;;2.50;1.75;;;30.50;57.40;;;;;;4972849;28;20502;-82
2022/06/24 12:11:19;;;;;;;4.10;1.67;;;31.60;55.20;;;;;;4973008;28;20026;-81
2022/06/24 12:13:59;;;;;;;3.03;1.98;;;31.40;53.80;;;;;;4972719;28;20015;-81
2022/06/24 12:16:26;;;;;;;3.95;2.38;;;32.00;52.60;;;;;;4971266;28;20026;-82
2022/06/24 12:18:53;;;;;;;2.33;1.95;;;32.40;50.50;;;;;;4972416;28;20030;-79
2022/06/24 12:21:27;;;;;;;2.30;1.63;;;32.20;50.00;;;;;;4972686;28;20023;-81
2022/06/24 12:23:53;;;;;;;3.88;1.90;;;32.20;51.30;;;;;;4976211;28;20110;-82
2022/06/24 12:26:22;;;;;;;4.63;1.88;;;32.60;51.30;;;;;;4953257;28;20031;-81
2022/06/24 12:29:02;;;;;;;3.47;1.58;;;33.80;49.20;;;;;;4973836;28;20031;-82
2022/06/24 12:31:29;;;;;;;3.08;1.88;;;34.20;48.90;;;;;;4955268;28;20023;-82
2022/06/24 12:33:56;;;;;;;3.90;1.85;;;33.50;47.10;;;;;;4977244;28;20052;-81
2022/06/24 12:36:35;;;;;;;1.92;1.63;;;33.20;48.60;;;;;;4972561;28;20033;-80
2022/06/24 12:39:06;;;;;;;2.20;2.00;;;32.70;49.60;;;;;;4972635;28;20029;-81
2022/06/24 12:41:49;;;;;;;2.67;1.67;;;33.00;49.50;;;;;;4973189;28;20030;-81
2022/06/24 12:44:16;;;;;;;4.45;1.92;;;33.20;50.70;;;;;;4967893;28;20537;-80
2022/06/24 12:52:39;;;;;;;3.58;2.42;;;33.20;49.70;;;;;;4989286;22;20153;-80
2022/06/24 12:55:08;;;;;;;5.78;2.05;;;32.20;50.20;;;;;;4966884;28;20046;-79
2022/06/24 12:57:34;;;;;;;2.28;1.77;;;32.00;52.20;;;;;;4954852;28;20073;-79
2022/06/24 13:00:03;;;;;;;4.43;2.28;;;33.40;49.30;;;;;;4971202;28;20467;-83
2022/06/24 13:02:30;;;;;;;5.03;1.63;;;32.90;50.20;;;;;;4970426;28;20097;-81
2022/06/24 13:04:55;;;;;;;3.25;1.80;;;33.50;48.50;;;;;;4953383;28;20142;-81